Time;durP1;ratioP1;P1;durP2;ratioP2;P2;SDS_P1;SDS_P2;PMS_P1;PMS_P2;Temp;Humidity;BMP_temperature;BMP_pressure;BME280_temperature;BME280_humidity;BME280_pressure;Samples;Min_cycle;Max_cycle;Signal;HPM_P1;HPM_P2
2022/06/04 00:00:23;;;;;;;25.30;17.57;;;;;;;21.77;100.00;99626.78;5045266;28;20537;-87
2022/06/04 00:02:49;;;;;;;21.27;17.63;;;;;;;20.56;100.00;99371.50;5045265;28;20162;-87
2022/06/04 00:05:18;;;;;;;26.27;18.70;;;;;;;22.20;100.00;99601.94;5026426;28;20173;-86
2022/06/04 00:07:44;;;;;;;32.67;22.03;;;;;;;20.33;100.00;99291.69;5044906;28;20240;-87
2022/06/04 00:15:49;;;;;;;45.53;29.57;;;;;;;21.81;100.00;99587.25;5045885;28;20176;-87
2022/06/04 00:18:16;;;;;;;36.27;24.63;;;;;;;21.65;100.00;99577.78;5044720;28;20169;-86
2022/06/04 00:20:42;;;;;;;28.30;20.97;;;;;;;21.40;100.00;99574.28;5044901;28;20496;-86
2022/06/04 00:23:09;;;;;;;25.13;20.53;;;;;;;21.46;100.00;99579.44;5044764;28;20220;-88
2022/06/04 00:25:36;;;;;;;25.93;19.87;;;;;;;21.60;100.00;99582.94;5027227;28;20178;-87
2022/06/04 00:28:05;;;;;;;23.63;19.73;;;;;;;21.71;100.00;99576.09;5045103;28;20177;-88
2022/06/04 00:30:31;;;;;;;26.37;20.20;;;;;;;18.44;100.00;99025.41;5027876;28;20169;-88
2022/06/04 00:32:57;;;;;;;30.63;21.00;;;;;;;18.79;100.00;99132.50;5043983;28;20617;-87
2022/06/04 00:35:23;;;;;;;27.93;20.63;;;;;;;21.28;100.00;99571.69;5043456;28;20202;-87
2022/06/04 00:37:49;;;;;;;25.93;19.93;;;;;;;17.69;100.00;99013.72;5043280;28;20162;-87
2022/06/04 00:40:32;;;;;;;26.23;20.53;;;;;;;18.48;100.00;99134.84;5042811;28;20549;-87
2022/06/04 00:42:58;;;;;;;26.10;20.37;;;;;;;20.50;100.00;99462.34;5043390;28;20225;-87
2022/06/04 00:45:32;;;;;;;24.27;19.10;;;;;;;21.16;100.00;99579.34;5042750;28;20627;-87
2022/06/04 00:47:59;;;;;;;26.33;19.43;;;;;;;20.44;100.00;99467.47;5042715;28;20218;-87
2022/06/04 00:50:27;;;;;;;25.87;18.60;;;;;;;21.16;100.00;99580.22;5042967;28;20159;-87
2022/06/04 00:52:54;;;;;;;25.47;18.57;;;;;;;18.88;100.00;99183.03;5025325;28;20220;-87
2022/06/04 00:55:21;;;;;;;28.03;20.10;;;;;;;21.40;100.00;99587.16;5024578;28;20650;-87
2022/06/04 00:58:21;;;;;;;25.50;19.20;;;;;;;21.42;100.00;99582.88;5043387;28;20163;-88
2022/06/04 01:00:54;;;;;;;25.57;19.63;;;;;;;18.96;100.00;99206.16;4965854;28;20187;-86
2022/06/04 01:03:38;;;;;;;25.07;20.10;;;;;;;21.17;100.00;99583.66;4982716;28;20188;-87
2022/06/04 01:06:24;;;;;;;27.73;19.70;;;;;;;21.00;100.00;99577.53;4982056;28;20215;-87
2022/06/04 01:09:01;;;;;;;25.83;19.40;;;;;;;21.02;100.00;99571.53;4979367;28;20207;-88
2022/06/04 01:12:09;;;;;;;23.60;18.00;;;;;;;19.80;100.00;99393.38;4979649;28;20229;-87
2022/06/04 01:14:41;;;;;;;19.17;16.47;;;;;;;21.06;100.00;99572.41;4981882;28;20590;-87
2022/06/04 01:17:09;;;;;;;28.30;17.17;;;;;;;20.95;100.00;99574.94;4980092;28;20175;-87
2022/06/04 01:19:43;;;;;;;34.50;21.30;;;;;;;20.52;100.00;99481.22;4979346;28;20175;-88
2022/06/04 01:22:23;;;;;;;34.87;20.70;;;;;;;21.18;100.00;99570.78;4978623;28;20187;-88
2022/06/04 01:25:17;;;;;;;40.57;24.17;;;;;;;21.26;100.00;99575.09;4986878;28;20254;-85
2022/06/04 01:28:08;;;;;;;26.80;18.93;;;;;;;21.15;100.00;99572.50;4985473;28;20256;-86
2022/06/04 01:30:43;;;;;;;23.33;15.87;;;;;;;20.16;100.00;99462.97;4905276;29;20194;-86
2022/06/04 01:33:19;;;;;;;20.63;15.83;;;;;;;20.52;100.00;99536.94;4920575;29;20196;-87
2022/06/04 01:35:51;;;;;;;22.30;16.27;;;;;;;20.50;100.00;99561.78;4955715;29;20267;-88
2022/06/04 01:38:26;;;;;;;23.90;16.57;;;;;;;18.06;100.00;99148.97;4943927;29;20177;-87
2022/06/04 01:41:07;;;;;;;23.97;16.27;;;;;;;19.70;100.00;99424.94;4959498;29;20651;-87
2022/06/04 01:43:35;;;;;;;22.43;17.07;;;;;;;20.48;100.00;99542.94;4959275;28;20224;-87
2022/06/04 01:46:11;;;;;;;23.07;17.33;;;;;;;19.69;100.00;99374.44;4952427;29;20272;-86
2022/06/04 01:48:41;;;;;;;24.10;18.13;;;;;;;20.57;100.00;99540.44;4940178;29;20201;-86
2022/06/04 01:51:09;;;;;;;23.47;18.50;;;;;;;20.18;100.00;99494.72;4939886;29;20178;-86
2022/06/04 01:53:39;;;;;;;22.83;18.43;;;;;;;19.64;100.00;99392.38;4940035;29;20169;-87
2022/06/04 01:56:14;;;;;;;23.93;18.87;;;;;;;20.59;100.00;99546.44;4939941;29;20169;-88
2022/06/04 01:58:58;;;;;;;24.97;18.53;;;;;;;20.28;100.00;99475.94;4939437;29;20188;-87
2022/06/04 02:01:29;;;;;;;24.27;18.60;;;;;;;18.25;100.00;99120.13;4939021;29;20190;-87
2022/06/04 02:03:57;;;;;;;25.53;18.23;;;;;;;20.48;100.00;99518.06;4938326;29;20174;-88
2022/06/04 02:06:28;;;;;;;25.17;18.47;;;;;;;20.41;100.00;99505.16;4939840;28;20284;-87
2022/06/04 02:08:59;;;;;;;23.80;17.77;;;;;;;20.71;100.00;99554.19;5000077;28;20174;-87
2022/06/04 02:11:25;;;;;;;22.67;18.40;;;;;;;20.71;100.00;99558.50;5017241;28;20158;-87
2022/06/04 02:13:54;;;;;;;23.13;17.60;;;;;;;17.40;100.00;99050.94;5018080;28;20632;-88
2022/06/04 02:16:26;;;;;;;22.10;16.97;;;;;;;20.20;100.00;99567.56;5017913;28;20159;-88
2022/06/04 02:18:51;;;;;;;21.93;17.03;;;;;;;19.36;100.00;99458.03;5019404;28;20225;-87
2022/06/04 02:21:18;;;;;;;20.57;16.20;;;;;;;18.14;100.00;99239.59;5020862;28;20166;-87
2022/06/04 02:23:45;;;;;;;22.43;16.37;;;;;;;20.17;100.00;99562.38;5023172;28;20169;-87
2022/06/04 02:26:10;;;;;;;22.73;16.40;;;;;;;17.76;100.00;99132.44;5023929;28;20186;-87
2022/06/04 02:28:36;;;;;;;22.13;16.20;;;;;;;19.47;100.00;99465.00;5022035;28;20196;-87
2022/06/04 02:31:11;;;;;;;22.57;16.37;;;;;;;19.71;100.00;99578.25;5018918;28;20206;-87
2022/06/04 02:34:14;;;;;;;21.63;17.30;;;;;;;19.54;100.00;99584.91;5019105;28;20173;-87
2022/06/04 02:37:02;;;;;;;24.37;17.03;;;;;;;19.54;100.00;99582.34;5019948;28;20162;-87
2022/06/04 02:39:40;;;;;;;21.73;16.70;;;;;;;19.49;100.00;99576.31;5019543;28;20202;-87
2022/06/04 02:42:17;;;;;;;23.20;17.33;;;;;;;18.92;100.00;99533.69;5000763;28;20232;-86
2022/06/04 02:44:51;;;;;;;22.93;17.40;;;;;;;19.27;100.00;99588.00;5018459;28;20708;-87
2022/06/04 02:47:26;;;;;;;23.10;17.47;;;;;;;19.42;100.00;99591.63;5000847;28;20202;-87
2022/06/04 02:49:58;;;;;;;24.83;16.77;;;;;;;18.04;100.00;99370.13;5018158;28;20169;-87
2022/06/04 02:52:24;;;;;;;22.40;16.83;;;;;;;18.72;100.00;99509.47;5000865;28;20198;-88
2022/06/04 02:54:55;;;;;;;21.60;16.93;;;;;;;16.60;100.00;99155.59;4999664;28;20213;-88
2022/06/04 02:57:22;;;;;;;24.53;17.30;;;;;;;19.46;100.00;99604.50;5016955;28;20166;-88
2022/06/04 02:59:49;;;;;;;23.87;18.00;;;;;;;18.17;100.00;99407.88;5016958;28;20217;-88
2022/06/04 03:02:17;;;;;;;24.60;17.43;;;;;;;18.93;100.00;99507.16;5016551;28;20171;-87
2022/06/04 03:04:47;;;;;;;25.03;17.57;;;;;;;18.99;100.00;99514.09;5018059;28;20166;-86
2022/06/04 03:07:13;;;;;;;22.57;17.40;;;;;;;19.25;100.00;99516.13;5018675;28;20221;-86
2022/06/04 03:09:39;;;;;;;24.97;17.43;;;;;;;18.91;100.00;99437.03;5017796;28;20554;-86
2022/06/04 03:12:06;;;;;;;22.13;17.27;;;;;;;19.73;100.00;99617.66;5018046;28;20163;-87
2022/06/04 03:14:32;;;;;;;24.50;17.70;;;;;;;19.61;100.00;99614.97;5017524;28;20182;-87
2022/06/04 03:16:57;;;;;;;26.20;17.50;;;;;;;17.31;100.00;99225.69;5016408;28;20232;-88
2022/06/04 03:19:22;;;;;;;22.73;16.93;;;;;;;17.48;100.00;99246.41;5016327;28;20246;-87
2022/06/04 03:21:48;;;;;;;25.00;18.07;;;;;;;17.26;100.00;99165.06;5016962;28;20198;-88
2022/06/04 03:24:14;;;;;;;21.40;16.67;;;;;;;19.31;100.00;99512.75;5016673;28;20222;-86
2022/06/04 03:26:40;;;;;;;22.40;16.50;;;;;;;19.76;100.00;99628.84;5016589;28;20197;-86
2022/06/04 03:29:06;;;;;;;25.63;17.47;;;;;;;17.55;100.00;99261.91;5016413;28;20697;-87
2022/06/04 03:31:32;;;;;;;25.13;17.43;;;;;;;19.16;100.00;99551.94;5023592;28;20226;-86
2022/06/04 03:33:58;;;;;;;23.53;17.20;;;;;;;17.56;100.00;99261.06;4999712;28;20174;-85
2022/06/04 03:36:27;;;;;;;22.53;16.80;;;;;;;17.05;100.00;99176.75;5015950;28;20576;-87
2022/06/04 03:38:58;;;;;;;21.60;16.60;;;;;;;18.43;100.00;99395.41;5015875;28;20256;-86
2022/06/04 03:41:24;;;;;;;25.30;17.57;;;;;;;16.73;100.00;99116.59;5015980;28;20159;-87
2022/06/04 03:43:52;;;;;;;25.83;17.07;;;;;;;16.77;100.00;99034.00;5016082;28;20295;-86
2022/06/04 03:46:19;;;;;;;29.03;17.13;;;;;;;18.96;100.00;99466.16;5016654;28;20195;-87
2022/06/04 03:48:44;;;;;;;23.93;16.77;;;;;;;19.82;100.00;99628.03;5028761;28;20674;-86
2022/06/04 03:51:10;;;;;;;26.20;16.97;;;;;;;17.25;100.00;99214.53;5022395;28;20229;-87
2022/06/04 03:53:35;;;;;;;25.47;17.53;;;;;;;17.78;100.00;99285.25;5024674;28;20238;-87
2022/06/04 03:56:01;;;;;;;22.17;17.67;;;;;;;19.08;100.00;99538.16;5036446;28;20243;-88
2022/06/04 03:58:30;;;;;;;25.27;20.03;;;;;;;16.58;100.00;99115.50;5036694;28;20162;-88
2022/06/04 04:00:57;;;;;;;26.97;19.50;;;;;;;19.05;100.00;99502.19;5036026;28;20622;-88
2022/06/04 04:03:23;;;;;;;28.03;19.23;;;;;;;18.69;100.00;99443.63;5037676;28;20170;-88
2022/06/04 04:05:52;;;;;;;25.10;18.40;;;;;;;17.45;100.00;99205.41;5035872;28;20568;-87
2022/06/04 04:08:20;;;;;;;25.47;17.93;;;;;;;16.27;100.00;99024.72;5036215;28;20162;-89
2022/06/04 04:10:46;;;;;;;23.43;17.60;;;;;;;16.73;100.00;99047.56;5036100;28;20158;-87
2022/06/04 04:13:13;;;;;;;23.93;16.90;;;;;;;17.28;100.00;99107.94;5037319;28;20193;-88
2022/06/04 04:15:39;;;;;;;22.80;17.90;;;;;;;16.96;100.00;98997.59;5036602;28;20163;-88
2022/06/04 04:18:06;;;;;;;23.97;16.00;;;;;;;19.59;100.00;99418.88;5038791;28;20181;-87
2022/06/04 04:20:34;;;;;;;22.37;17.20;;;;;;;17.67;100.00;99049.56;5021368;28;20181;-87
2022/06/04 04:23:00;;;;;;;23.43;16.00;;;;;;;19.95;100.00;99384.03;5035906;28;20167;-88
2022/06/04 04:25:29;;;;;;;23.37;16.97;;;;;;;18.26;100.00;99038.97;5035894;28;20169;-86
2022/06/04 04:27:56;;;;;;;21.33;16.17;;;;;;;18.24;100.00;99044.06;5035810;28;20166;-87
2022/06/04 04:30:24;;;;;;;22.93;17.03;;;;;;;19.74;100.00;99275.16;5035771;28;20186;-87
2022/06/04 04:32:51;;;;;;;19.37;16.17;;;;;;;22.00;100.00;99613.97;5037029;28;20162;-88
2022/06/04 04:35:20;;;;;;;22.03;15.90;;;;;;;19.15;100.00;99143.84;5037611;28;20158;-88
2022/06/04 04:37:45;;;;;;;25.10;16.33;;;;;;;19.43;100.00;99140.59;5038665;28;20166;-88
2022/06/04 04:40:14;;;;;;;22.73;16.20;;;;;;;19.45;99.33;99135.47;5038977;28;20233;-88
2022/06/04 04:42:40;;;;;;;22.07;15.47;;;;;;;22.30;99.38;99620.00;5042197;28;20189;-89
2022/06/04 04:45:07;;;;;;;21.40;15.83;;;;;;;20.43;100.00;99326.88;5040784;28;20273;-88
2022/06/04 04:47:34;;;;;;;19.53;15.90;;;;;;;18.71;100.00;99066.63;5039601;28;20299;-88
2022/06/04 04:50:01;;;;;;;22.63;17.27;;;;;;;22.26;100.00;99690.50;5040300;28;20188;-88
2022/06/04 04:52:27;;;;;;;23.20;15.80;;;;;;;20.20;100.00;99260.75;5024457;28;20205;-87
2022/06/04 04:54:53;;;;;;;19.33;15.47;;;;;;;19.96;95.76;99166.47;5039008;28;20169;-86
2022/06/04 04:57:18;;;;;;;18.93;15.07;;;;;;;20.89;97.90;99357.84;5039210;28;20237;-88
2022/06/04 04:59:44;;;;;;;19.20;15.13;;;;;;;20.27;98.36;99222.25;5039583;28;20186;-88
2022/06/04 05:02:09;;;;;;;19.60;15.17;;;;;;;21.03;96.30;99294.38;5021680;28;20169;-86
2022/06/04 05:04:35;;;;;;;19.53;15.07;;;;;;;19.21;96.63;99031.81;5040854;28;20552;-86
2022/06/04 05:07:01;;;;;;;20.07;14.87;;;;;;;21.76;100.00;99491.88;5042315;28;20229;-87
2022/06/04 05:09:27;;;;;;;21.67;15.27;;;;;;;20.19;98.19;99253.91;5041142;28;20173;-87
2022/06/04 05:11:52;;;;;;;19.97;15.10;;;;;;;19.43;95.73;99108.06;5040892;28;20170;-88
2022/06/04 05:14:18;;;;;;;21.47;14.90;;;;;;;19.57;94.97;99112.41;5041341;28;20615;-86
2022/06/04 05:16:43;;;;;;;19.60;14.80;;;;;;;20.69;94.58;99310.63;5023833;28;20248;-87
2022/06/04 05:19:09;;;;;;;16.73;13.93;;;;;;;22.48;89.63;99521.09;5041026;28;20543;-88
2022/06/04 05:21:38;;;;;;;19.70;13.70;;;;;;;21.00;90.71;99314.97;5041832;28;20220;-88
2022/06/04 05:24:04;;;;;;;17.90;14.20;;;;;;;20.90;91.81;99308.09;5044329;28;20169;-88
2022/06/04 05:26:33;;;;;;;18.43;14.00;;;;;;;20.50;88.25;99173.41;5025352;28;20251;-88
2022/06/04 05:28:59;;;;;;;15.93;13.90;;;;;;;22.41;88.54;99475.53;5042506;28;20220;-89
2022/06/04 05:31:25;;;;;;;15.13;13.30;;;;;;;21.85;86.74;99326.06;5024869;28;20227;-88
2022/06/04 05:33:50;;;;;;;16.37;13.73;;;;;;;20.20;85.39;98999.41;5024258;28;20180;-89
2022/06/04 05:36:16;;;;;;;16.90;13.40;;;;;;;21.30;84.57;99155.31;5022960;28;20166;-89
2022/06/04 05:38:42;;;;;;;18.17;13.10;;;;;;;20.64;88.13;99181.13;5020553;28;20193;-87
2022/06/04 05:41:10;;;;;;;16.13;13.50;;;;;;;19.86;91.20;99070.50;5049379;28;20174;-88
2022/06/04 05:43:38;;;;;;;17.30;14.13;;;;;;;23.39;96.65;99707.69;5035963;28;20215;-89
2022/06/04 05:46:06;;;;;;;16.97;13.60;;;;;;;20.28;92.06;99077.41;5017426;28;20199;-88
2022/06/04 05:48:35;;;;;;;19.13;13.50;;;;;;;23.18;87.86;99497.63;5016521;28;20658;-88
2022/06/04 05:51:00;;;;;;;17.97;13.53;;;;;;;22.08;87.51;99297.66;5017680;28;20259;-89
2022/06/04 05:53:26;;;;;;;15.50;13.17;;;;;;;20.59;87.69;99086.84;5016116;28;20171;-88
2022/06/04 05:55:52;;;;;;;18.57;13.30;;;;;;;23.74;83.79;99466.25;5016259;28;20248;-87
2022/06/04 05:58:18;;;;;;;17.57;13.60;;;;;;;22.04;82.83;99205.72;5018849;28;20203;-88
2022/06/04 06:00:44;;;;;;;16.67;13.03;;;;;;;22.85;83.56;99336.00;5017514;28;20167;-87
2022/06/04 06:03:11;;;;;;;19.70;13.77;;;;;;;22.07;84.60;99234.91;5017314;28;20173;-88
2022/06/04 06:05:44;;;;;;;18.10;13.20;;;;;;;24.86;81.99;99590.31;5017418;28;20163;-88
2022/06/04 06:08:12;;;;;;;23.83;15.03;;;;;;;25.28;80.83;99697.81;5017973;28;20167;-89
2022/06/04 06:10:39;;;;;;;17.67;14.07;;;;;;;24.15;78.19;99427.09;5026924;28;20184;-85
2022/06/04 06:13:05;;;;;;;18.93;15.27;;;;;;;24.62;76.17;99450.72;5034010;28;20254;-88
2022/06/04 06:15:31;;;;;;;21.43;13.93;;;;;;;24.51;76.51;99434.44;5016022;28;20651;-89
2022/06/04 06:17:56;;;;;;;23.13;13.07;;;;;;;24.02;76.60;99349.59;5017432;28;20192;-89
2022/06/04 06:20:22;;;;;;;15.97;12.30;;;;;;;24.82;76.83;99494.53;5000355;28;20206;-89
2022/06/04 06:22:47;;;;;;;14.60;12.97;;;;;;;26.47;74.87;99690.22;4999252;28;20167;-89
2022/06/04 06:25:13;;;;;;;17.67;13.57;;;;;;;25.07;73.94;99407.84;4998704;28;20474;-88
2022/06/04 06:27:38;;;;;;;16.75;12.65;;;;;;;25.00;72.10;99373.38;5001998;28;20203;-87
2022/06/04 06:30:05;;;;;;;14.13;12.63;;;;;;;27.02;72.42;99705.78;5002130;28;20174;-87
2022/06/04 06:32:30;;;;;;;15.50;12.77;;;;;;;25.88;71.69;99483.50;5003380;28;20181;-89
2022/06/04 06:34:55;;;;;;;15.88;12.32;;;;;;;25.89;71.22;99474.84;5002285;28;20269;-88
2022/06/04 06:37:21;;;;;;;18.23;13.25;;;;;;;25.89;71.08;99480.03;5002098;28;20204;-88
2022/06/04 06:39:47;;;;;;;15.15;12.10;;;;;;;26.40;69.28;99570.91;5001955;28;20241;-90
2022/06/04 06:42:12;;;;;;;14.73;11.40;;;;;;;24.99;68.71;99345.78;5005037;28;20178;-88
2022/06/04 06:44:38;;;;;;;14.95;11.60;;;;;;;24.78;69.76;99395.25;5026222;28;20281;-89
2022/06/04 06:47:04;;;;;;;12.68;11.00;;;;;;;23.61;68.48;99098.44;5032160;28;20191;-90
2022/06/04 06:49:30;;;;;;;12.75;10.50;;;;;;;27.29;67.23;99691.41;5030659;28;20365;-88
2022/06/04 06:52:01;;;;;;;15.50;11.65;;;;;;;24.86;65.33;99160.34;5031545;28;20637;-89
2022/06/04 06:54:31;;;;;;;14.23;11.55;;;;;;;27.91;66.96;99704.00;5024367;28;20657;-90
2022/06/04 06:56:57;;;;;;;24.55;18.70;;;;;;;25.41;65.25;99237.94;5038627;28;20623;-88
2022/06/04 06:59:25;;;;;;;17.25;13.15;;;;;;;27.79;66.70;99713.84;5038444;28;20164;-88
2022/06/04 07:01:51;;;;;;;19.75;14.88;;;;;;;24.99;65.97;99166.19;5044612;28;20161;-91
2022/06/04 07:04:18;;;;;;;15.52;12.00;;;;;;;25.16;65.10;99197.84;5041341;28;20185;-89
2022/06/04 07:06:46;;;;;;;16.58;12.52;;;;;;;26.49;65.17;99413.19;5021739;28;20766;-89
2022/06/04 07:09:14;;;;;;;15.30;12.00;;;;;;;28.38;66.00;99699.50;5039808;28;20556;-86
2022/06/04 07:11:39;;;;;;;96.93;57.42;;;;;;;26.12;64.50;99296.22;5039116;28;20235;-88
2022/06/04 07:14:05;;;;;;;82.15;52.40;;;;;;;26.03;64.21;99278.25;5041710;28;20192;-88
2022/06/04 07:16:31;;;;;;;18.48;15.32;;;;;;;25.83;64.95;99246.66;5043160;28;20173;-87
2022/06/04 07:18:56;;;;;;;16.33;12.05;;;;;;;24.85;64.55;99042.13;5041289;28;20160;-89
2022/06/04 07:21:22;;;;;;;14.18;11.32;;;;;;;26.78;62.87;99350.25;5023503;28;20182;-89
2022/06/04 07:23:47;;;;;;;17.10;13.73;;;;;;;26.48;62.86;99242.66;5022147;28;20211;-89
2022/06/04 07:26:13;;;;;;;20.40;17.00;;;;;;;28.18;64.71;99611.47;5042664;28;20197;-90
2022/06/04 07:28:40;;;;;;;40.90;27.77;;;;;;;26.71;63.42;99284.56;5024435;28;20176;-90
2022/06/04 07:31:07;;;;;;;16.60;11.98;;;;;;;27.49;61.31;99354.63;5021995;28;20177;-91
2022/06/04 07:33:34;;;;;;;14.15;11.32;;;;;;;28.33;60.84;99418.34;5040654;28;20642;-89
2022/06/04 07:35:59;;;;;;;15.18;11.93;;;;;;;28.25;60.24;99364.75;5023376;28;20176;-90
2022/06/04 07:38:25;;;;;;;19.25;12.00;;;;;;;27.55;58.69;99207.09;5046972;28;20161;-91
2022/06/04 07:40:51;;;;;;;12.35;10.60;;;;;;;27.27;58.18;99168.81;5048471;28;20164;-89
2022/06/04 07:43:17;;;;;;;16.02;12.05;;;;;;;28.47;59.41;99483.94;5044319;28;20225;-89
2022/06/04 07:45:42;;;;;;;14.20;10.93;;;;;;;28.58;59.14;99489.69;5041320;28;20176;-90
2022/06/04 07:48:08;;;;;;;13.32;10.43;;;;;;;27.49;59.43;99339.03;5023204;28;20258;-90
2022/06/04 07:50:34;;;;;;;15.20;10.13;;;;;;;28.39;58.37;99397.34;5040721;28;20169;-89
2022/06/04 07:53:00;;;;;;;17.92;12.35;;;;;;;25.68;61.94;99120.75;5040539;28;20191;-91
2022/06/04 07:55:26;;;;;;;15.90;10.63;;;;;;;26.60;60.70;99176.59;5038453;28;20163;-90
2022/06/04 07:57:52;;;;;;;13.43;10.50;;;;;;;26.62;59.55;99146.25;5037420;28;20166;-91
2022/06/04 08:00:19;;;;;;;16.55;9.93;;;;;;;28.25;61.40;99503.63;5036007;28;20173;-91
2022/06/04 08:02:46;;;;;;;12.95;9.68;;;;;;;28.01;59.32;99309.84;5030030;28;20174;-89
2022/06/04 08:05:13;;;;;;;17.27;13.23;;;;;;;28.06;57.84;99249.88;5023179;28;20177;-90
2022/06/04 08:07:39;;;;;;;21.40;13.70;;;;;;;27.56;56.29;99081.34;5035911;28;20577;-90
2022/06/04 08:10:08;;;;;;;20.15;12.70;;;;;;;29.58;55.34;99335.41;5018193;28;20169;-89
2022/06/04 08:12:34;;;;;;;13.73;10.43;;;;;;;29.18;55.38;99286.28;5036001;28;20168;-89
2022/06/04 08:15:01;;;;;;;14.57;10.30;;;;;;;31.26;55.34;99671.00;5035688;28;20171;-90
2022/06/04 08:17:26;;;;;;;13.35;9.45;;;;;;;30.89;55.06;99635.63;5040902;28;20172;-91
2022/06/04 08:19:52;;;;;;;14.90;10.98;;;;;;;29.85;54.93;99437.19;5041058;28;20161;-89
2022/06/04 08:22:18;;;;;;;15.88;10.73;;;;;;;30.20;54.96;99481.22;5039247;28;20195;-89
2022/06/04 08:24:44;;;;;;;13.48;10.30;;;;;;;27.82;54.41;99071.00;5021825;28;20172;-89
2022/06/04 08:27:09;;;;;;;15.48;10.60;;;;;;;29.14;54.03;99235.16;5027196;28;20193;-90
2022/06/04 08:29:37;;;;;;;12.10;10.05;;;;;;;29.54;53.39;99279.00;5021525;28;20177;-92
2022/06/04 08:32:04;;;;;;;11.10;8.50;;;;;;;29.48;51.95;99203.53;5026461;28;20159;-89
2022/06/04 08:34:31;;;;;;;9.45;6.75;;;;;;;29.20;50.16;99223.63;5039418;28;20222;-88
2022/06/04 08:36:57;;;;;;;16.27;7.13;;;;;;;30.31;49.58;99413.78;5016230;28;20752;-91
2022/06/04 08:39:23;;;;;;;10.15;6.55;;;;;;;28.86;49.03;99137.06;5005791;28;20174;-91
2022/06/04 08:42:01;;;;;;;8.30;5.95;;;;;;;32.23;48.82;99672.53;5007421;28;20173;-90
2022/06/04 08:44:44;;;;;;;13.57;7.20;;;;;;;32.38;49.00;99658.81;5024634;28;20214;-91
2022/06/04 08:47:29;;;;;;;12.93;7.25;;;;;;;32.64;48.52;99654.22;5023288;28;20195;-93
2022/06/04 08:50:02;;;;;;;9.98;7.78;;;;;;;27.52;50.41;99005.19;5004218;28;20194;-90
2022/06/04 08:52:34;;;;;;;8.55;7.65;;;;;;;30.48;51.69;99507.28;5006064;28;20257;-90
2022/06/04 08:57:59;;;;;;;12.38;8.93;;;;;;;31.56;50.77;99633.25;5024327;28;20169;-90
2022/06/04 09:00:32;;;;;;;13.63;8.25;;;;;;;32.30;49.69;99637.31;5007569;28;20240;-90
2022/06/04 09:03:06;;;;;;;13.13;8.52;;;;;;;32.93;48.66;99631.16;5003496;28;20205;-90
2022/06/04 09:06:22;;;;;;;12.55;8.10;;;;;;;33.28;47.16;99640.97;5003216;28;20185;-91
2022/06/04 09:09:09;;;;;;;12.27;7.90;;;;;;;33.35;46.76;99631.06;4908872;29;20198;-92
2022/06/04 09:11:58;;;;;;;14.55;8.02;;;;;;;33.42;46.50;99629.84;4922301;29;20648;-90
2022/06/04 09:14:41;;;;;;;9.00;7.63;;;;;;;33.24;46.28;99628.88;4923138;29;20166;-90
2022/06/04 09:17:13;;;;;;;11.57;8.13;;;;;;;33.12;46.37;99626.81;4912493;29;20162;-91
2022/06/04 09:19:43;;;;;;;13.45;7.18;;;;;;;33.29;45.49;99605.94;4925908;29;20186;-90
2022/06/04 09:22:36;;;;;;;12.32;7.82;;;;;;;33.10;46.30;99600.63;4925443;29;20229;-89
2022/06/04 09:25:03;;;;;;;11.05;7.68;;;;;;;32.45;46.67;99611.31;4889765;29;20269;-90
2022/06/04 09:28:03;;;;;;;14.68;7.70;;;;;;;32.60;45.63;99578.38;4887440;29;20591;-89
2022/06/04 09:30:45;;;;;;;11.57;7.15;;;;;;;32.85;45.13;99589.53;4904315;29;20218;-91
2022/06/04 09:33:19;;;;;;;12.40;7.65;;;;;;;33.13;45.52;99605.75;4904100;29;20201;-89
2022/06/04 09:35:46;;;;;;;14.13;7.22;;;;;;;33.02;44.82;99539.75;4903381;29;20193;-89
2022/06/04 09:38:50;;;;;;;15.50;6.78;;;;;;;32.92;45.89;99595.31;4903224;29;20195;-89
2022/06/04 09:41:21;;;;;;;12.32;6.75;;;;;;;33.07;45.26;99590.28;4884215;29;20198;-90
2022/06/04 09:44:05;;;;;;;11.32;7.07;;;;;;;32.06;45.74;99437.41;4872364;29;20219;-90
2022/06/04 09:46:31;;;;;;;8.38;6.82;;;;;;;32.67;45.87;99588.53;4922404;29;20269;-90
2022/06/04 09:48:58;;;;;;;11.88;7.50;;;;;;;33.05;45.39;99550.13;4922163;29;20201;-91
2022/06/04 09:51:28;;;;;;;11.35;6.70;;;;;;;32.37;45.06;99505.06;4923625;29;20213;-90
2022/06/04 09:54:02;;;;;;;9.88;6.38;;;;;;;31.01;44.55;99265.59;4922980;29;20193;-87
2022/06/04 09:56:41;;;;;;;12.48;6.85;;;;;;;32.44;45.73;99535.38;4922665;29;20226;-88
2022/06/04 09:59:18;;;;;;;11.18;6.28;;;;;;;31.58;45.37;99401.03;4922119;29;20186;-90
2022/06/04 10:01:57;;;;;;;11.27;6.30;;;;;;;33.07;44.85;99578.94;4916255;29;20279;-92
2022/06/04 10:04:23;;;;;;;11.02;6.13;;;;;;;31.68;44.15;99402.34;4926093;29;20196;-90
2022/06/04 10:06:49;;;;;;;8.32;6.43;;;;;;;31.79;45.00;99421.06;4945561;29;20313;-90
2022/06/04 10:12:16;;;;;;;12.40;6.25;;;;;;;32.93;43.23;99519.19;4943305;29;20196;-88
2022/06/04 10:14:56;;;;;;;8.43;5.97;;;;;;;32.92;42.98;99564.69;4943258;29;20241;-88
2022/06/04 10:17:37;;;;;;;8.43;5.82;;;;;;;31.72;43.71;99456.28;4961606;28;20210;-88
2022/06/04 10:20:03;;;;;;;7.18;5.55;;;;;;;32.17;43.83;99510.34;5003831;28;20712;-89
2022/06/04 10:22:29;;;;;;;8.35;6.40;;;;;;;31.39;43.64;99316.31;5023589;28;20174;-89
2022/06/04 10:24:57;;;;;;;7.22;6.10;;;;;;;30.86;44.54;99271.41;5005565;28;20171;-89
2022/06/04 10:27:50;;;;;;;10.60;6.88;;;;;;;30.87;44.53;99268.75;5019172;28;20194;-89
2022/06/04 10:30:38;;;;;;;8.73;6.68;;;;;;;32.20;44.42;99424.56;5020001;28;20161;-89
2022/06/04 10:33:28;;;;;;;9.20;7.07;;;;;;;32.66;44.98;99541.41;5023242;28;20186;-88
2022/06/04 10:36:01;;;;;;;10.15;6.53;;;;;;;32.34;44.54;99434.44;5022791;28;20177;-90
2022/06/04 10:38:52;;;;;;;8.43;6.50;;;;;;;33.14;44.01;99531.34;5019443;28;20163;-89
2022/06/04 10:41:43;;;;;;;7.70;6.32;;;;;;;32.64;44.05;99446.19;5019287;28;20269;-89
2022/06/04 10:44:34;;;;;;;10.30;6.30;;;;;;;33.25;43.35;99529.09;4904081;29;20226;-91
2022/06/04 10:47:12;;;;;;;7.80;5.93;;;;;;;32.75;44.50;99527.00;4907531;29;20231;-90
2022/06/04 10:49:58;;;;;;;8.90;5.97;;;;;;;32.91;43.97;99521.00;4926134;29;20647;-88
2022/06/04 10:52:27;;;;;;;9.20;6.45;;;;;;;33.05;43.50;99521.28;4923479;29;20692;-90
2022/06/04 10:55:15;;;;;;;9.77;6.35;;;;;;;33.34;42.80;99517.31;4923005;29;20237;-90
2022/06/04 10:58:02;;;;;;;9.82;6.18;;;;;;;33.70;42.91;99517.34;4939457;29;20169;-87
2022/06/04 11:00:36;;;;;;;11.05;6.10;;;;;;;33.64;42.00;99501.88;4933557;29;20237;-91
2022/06/04 11:03:16;;;;;;;8.15;6.15;;;;;;;32.98;42.80;99435.88;4913163;29;20182;-91
2022/06/04 11:05:50;;;;;;;8.90;6.40;;;;;;;32.38;43.56;99297.09;4929063;29;20188;-89
2022/06/04 11:08:21;;;;;;;8.23;6.25;;;;;;;33.86;41.84;99505.16;4913751;29;20200;-89
2022/06/04 11:11:13;;;;;;;9.55;6.80;;;;;;;33.64;42.05;99433.59;4922987;29;20270;-90
2022/06/04 11:13:41;;;;;;;7.60;6.03;;;;;;;33.36;41.51;99357.06;4920521;29;20210;-91
2022/06/04 11:16:34;;;;;;;12.57;6.63;;;;;;;34.33;41.49;99487.03;4922273;29;20543;-91
2022/06/04 11:19:10;;;;;;;7.80;5.75;;;;;;;34.31;41.00;99484.44;4921831;29;20839;-87
2022/06/04 11:21:35;;;;;;;9.65;6.38;;;;;;;33.61;42.33;99478.41;4965567;28;20678;-89
2022/06/04 11:24:52;;;;;;;10.93;6.28;;;;;;;33.16;44.26;99479.63;5000657;28;20270;-87
2022/06/04 11:27:24;;;;;;;10.50;6.82;;;;;;;32.38;43.75;99370.47;4921196;29;20687;-92
2022/06/04 11:29:51;;;;;;;10.88;6.50;;;;;;;33.10;43.66;99472.03;4921499;29;20162;-88
2022/06/04 11:32:35;;;;;;;12.35;6.55;;;;;;;33.25;42.46;99395.22;4905251;29;20588;-89
2022/06/04 11:35:35;;;;;;;9.25;6.20;;;;;;;34.41;41.68;99461.16;4919228;29;20180;-90
2022/06/04 11:38:40;;;;;;;7.57;5.93;;;;;;;34.99;41.10;99466.81;4920059;29;20294;-89
2022/06/04 11:41:30;;;;;;;11.82;6.22;;;;;;;35.76;40.00;99456.34;4904411;29;20256;-90
2022/06/04 11:43:58;;;;;;;9.45;5.90;;;;;;;36.37;37.79;99461.50;4932487;29;20222;-89
2022/06/04 11:46:42;;;;;;;8.95;5.72;;;;;;;36.83;36.75;99455.09;4928202;29;20678;-89